This is the latest recevied weather packets stored in our database for station/object WMKA. If no packets are shown the sender has not sent any weather packets the latest 10 day(s).
| Time | Temp. | Humidity | Pressure | Rain* | Wind** | Luminosity | Snow |
|---|---|---|---|---|---|---|---|
| 1777921804 | 25° C | 94% | 1009 hPa | - | - | - | - |
| 1777918203 | 25.56° C | 88% | 1009 hPa | - | - | - | - |
| 1777914599 | 25.56° C | 88% | 1010 hPa | - | - | - | - |
| 1777910997 | 25.56° C | 94% | 1010 hPa | - | - | - | - |
| 1777907402 | 25.56° C | 88% | 1010 hPa | - | - | - | - |
| 1777903801 | 25.56° C | 88% | 1009 hPa | - | - | - | - |
| 1777900197 | 25.56° C | 88% | 1009 hPa | - | - | - | - |
| 1777896597 | 25.56° C | 94% | 1007 hPa | - | - | - | - |
| 1777893001 | 25.56° C | 94% | 1007 hPa | - | - | - | - |
| 1777889398 | 25.56° C | 94% | 1007 hPa | - | - | - | - |
| 1777885796 | 30.56° C | 74% | 1007 hPa | - | - | - | - |
| 1777882196 | 31.67° C | 74% | 1007 hPa | - | - | - | - |
| 1777878601 | 31.67° C | 74% | 1008 hPa | - | - | - | - |
| 1777874997 | 31.67° C | 74% | 1009 hPa | - | - | - | - |
| 1777871396 | 31.67° C | 74% | 1010 hPa | - | - | - | - |
| 1777867796 | 30.56° C | 74% | 1011 hPa | - | - | - | - |
| 1777864200 | 30° C | 79% | 1011 hPa | - | - | - | - |
| 1777860596 | 28.89° C | 79% | 1011 hPa | - | - | - | - |
| 1777856999 | 26.67° C | 88% | 1010 hPa | - | - | - | - |
| 1777853395 | 25.56° C | 88% | 1009 hPa | - | - | - | - |
| 1777849795 | 25° C | 94% | 1009 hPa | - | - | - | - |
| 1777846201 | 25° C | 94% | 1008 hPa | - | - | - | - |
| 1777842597 | 25.56° C | 88% | 1008 hPa | - | - | - | - |
| 1777838995 | 25.56° C | 94% | 1008 hPa | - | - | - | - |
| 1777835396 | 25.56° C | 88% | 1009 hPa | - | - | - | - |
* Rain since midnight (hover to see other rain measurements)
** Current wind speed in m/s (hover to see current wind gust speed)